Tuscaloosa, AL (35485)

10:34 AM CDT on September 01, 2014 (GMT -0500)
TDOT | Change Station
CLOSE
Current Station
Personal Weather Station
Location: Tuscaloosa, AL
Elevation: 200 ft
Nearby Weather Stations

Elev 200 ft 33.20 °N, 87.57 °W | Updated 3 minutes ago

Clear
Clear
88.9 °F
Feels Like 99 °F
N
4.0
Wind Variable Wind from NNW

Today
High -- | Low -- °F
--% Chance of Precip.
Yesterday
High -- | Low -- °F
Precip. -- in
6:24 AM 7:15 PM
Waxing Crescent, 41% visible
Pressure 30.10 in
Visibility 9.0 miles
Clouds Clear
Heat Index 99 °F
Dew Point 75 °F
Humidity 63%
Rainfall 0.00 in
Snow Depth Not available.
UV 3 out of 12
Pollen 9.70 out of 12
Ozone Good
PM2.5 Moderate
Flu Activity Not available.
METAR KTCL 011353Z 19003KT 9SM CLR 26/23 A3011 RMK AO2 SLP193 T02610228

More Conditions Fewer Conditions

Pressure 30.10 in
Visibility 9.0 miles
Clouds Clear
Heat Index 99 °F
Dew Point 75 °F
Humidity 63%
Rainfall 0.00 in
Snow Depth Not available.
UV 3 out of 12
Pollen 9.70 out of 12
Ozone Good
PM2.5 Moderate
Flu Activity Not available.
METAR KTCL 011353Z 19003KT 9SM CLR 26/23 A3011 RMK AO2 SLP193 T02610228

More Conditions Fewer Conditions

10-Day Weather Forecast

Almanac

Astronomy

Sep. 01, 2014 Rise Set
Actual Time 6:24 AM CDT 7:15 PM CDT
Civil Twilight 5:59 AM CDT 7:40 PM CDT
Nautical Twilight 5:29 AM CDT 8:10 PM CDT
Astronomical Twilight 4:59 AM CDT 8:41 PM CDT
Moon 12:49 PM CDT 11:37 PM CDT
Length of Visible Light 13h 41m
Length of Day
12h 50m
Tomorrow will be 1m 57s shorter.
Waxing Crescent, 41% of the Moon is Illuminated
Today
Waxing Crescent
Sep 2
First Quarter
Sep 8
Full
Sep 15
Last Quarter
Sep 24
New

Today's Extremes

State Highs State Lows

Community

WunderPhotos

Upload Photos

1,749,276 photos uploaded!

Nearby

Air Quality

  Air Quality AQ Index Pollutant
Yesterday Good
PM10
Yesterday Good
OZONE
Current Moderate
PM2.5
Current Good
OZONE
Monday Good
PM2.5
Monday Good
OZONE
Tuesday Good
OZONE

Snow Depth

Station Depth Elevation
No new snow has been reported.

Earthquake Activity

City Distance Mag. Time & Date
No recent earthquake activity has been reported nearby.
Minimum magnitude displayed is 2.5.

Coastal Water Temperatures

Place Temperature
No Stations Reporting

Nearby Weather Stations